sensor_id;sensor_type;location;lat;lon;timestamp;pressure;altitude;pressure_sealevel;temperature;humidity
28000;BME280;15328;50.860;10.562;2023-05-12T00:03:00;96453.06;;;13.27;63.80
28000;BME280;15328;50.860;10.562;2023-05-12T00:08:03;96458.81;;;13.13;64.74
28000;BME280;15328;50.860;10.562;2023-05-12T00:13:03;96451.66;;;13.25;64.73
28000;BME280;15328;50.860;10.562;2023-05-12T00:18:03;96449.44;;;13.10;64.37
28000;BME280;15328;50.860;10.562;2023-05-12T00:23:04;96450.81;;;13.13;64.57
28000;BME280;15328;50.860;10.562;2023-05-12T00:28:04;96445.94;;;13.10;65.23
28000;BME280;15328;50.860;10.562;2023-05-12T00:33:05;96453.25;;;13.14;64.47
28000;BME280;15328;50.860;10.562;2023-05-12T00:38:05;96445.59;;;13.06;64.70
28000;BME280;15328;50.860;10.562;2023-05-12T00:43:06;96449.56;;;13.04;64.72
28000;BME280;15328;50.860;10.562;2023-05-12T00:48:06;96446.66;;;12.93;64.92
28000;BME280;15328;50.860;10.562;2023-05-12T00:53:07;96449.66;;;12.97;64.85
28000;BME280;15328;50.860;10.562;2023-05-12T00:58:08;96447.59;;;12.99;64.67
28000;BME280;15328;50.860;10.562;2023-05-12T01:03:08;96452.56;;;12.95;64.47
28000;BME280;15328;50.860;10.562;2023-05-12T01:08:10;96447.00;;;12.97;64.39
28000;BME280;15328;50.860;10.562;2023-05-12T01:13:10;96450.38;;;12.92;64.41
28000;BME280;15328;50.860;10.562;2023-05-12T01:18:11;96456.06;;;12.96;64.68
28000;BME280;15328;50.860;10.562;2023-05-12T01:23:15;96447.81;;;12.97;64.92
28000;BME280;15328;50.860;10.562;2023-05-12T01:28:17;96449.91;;;12.95;64.66
28000;BME280;15328;50.860;10.562;2023-05-12T01:33:19;96458.47;;;12.86;64.34
28000;BME280;15328;50.860;10.562;2023-05-12T01:38:20;96448.72;;;12.80;64.63
28000;BME280;15328;50.860;10.562;2023-05-12T01:43:20;96461.72;;;12.76;64.96
28000;BME280;15328;50.860;10.562;2023-05-12T01:48:20;96457.44;;;12.75;64.99
28000;BME280;15328;50.860;10.562;2023-05-12T01:53:21;96454.53;;;12.77;64.84
28000;BME280;15328;50.860;10.562;2023-05-12T01:58:21;96462.19;;;12.73;65.16
28000;BME280;15328;50.860;10.562;2023-05-12T02:03:21;96465.56;;;12.68;65.18
28000;BME280;15328;50.860;10.562;2023-05-12T02:08:22;96472.16;;;12.66;64.93
28000;BME280;15328;50.860;10.562;2023-05-12T02:13:22;96470.63;;;12.58;65.17
28000;BME280;15328;50.860;10.562;2023-05-12T02:18:22;96468.09;;;12.63;64.71
28000;BME280;15328;50.860;10.562;2023-05-12T02:23:23;96470.53;;;12.65;64.93
28000;BME280;15328;50.860;10.562;2023-05-12T02:28:23;96468.91;;;12.64;64.78
28000;BME280;15328;50.860;10.562;2023-05-12T02:33:24;96478.41;;;12.60;65.07
28000;BME280;15328;50.860;10.562;2023-05-12T02:38:24;96476.66;;;12.54;64.92
28000;BME280;15328;50.860;10.562;2023-05-12T02:43:25;96479.25;;;12.60;64.84
28000;BME280;15328;50.860;10.562;2023-05-12T02:48:26;96475.53;;;12.61;64.82
28000;BME280;15328;50.860;10.562;2023-05-12T02:53:26;96470.38;;;12.48;64.87
28000;BME280;15328;50.860;10.562;2023-05-12T02:58:27;96466.78;;;12.43;65.30
28000;BME280;15328;50.860;10.562;2023-05-12T03:03:27;96467.03;;;12.53;65.09
28000;BME280;15328;50.860;10.562;2023-05-12T03:08:28;96471.78;;;12.51;64.63
28000;BME280;15328;50.860;10.562;2023-05-12T03:13:28;96479.06;;;12.44;64.87
28000;BME280;15328;50.860;10.562;2023-05-12T03:18:29;96472.47;;;12.46;65.01
28000;BME280;15328;50.860;10.562;2023-05-12T03:23:29;96475.34;;;12.45;65.10
28000;BME280;15328;50.860;10.562;2023-05-12T03:28:30;96471.88;;;12.44;65.06
28000;BME280;15328;50.860;10.562;2023-05-12T03:33:31;96460.28;;;12.38;65.14
28000;BME280;15328;50.860;10.562;2023-05-12T03:38:31;96467.34;;;12.33;64.94
28000;BME280;15328;50.860;10.562;2023-05-12T03:43:32;96472.16;;;12.24;65.34
28000;BME280;15328;50.860;10.562;2023-05-12T03:48:32;96469.94;;;12.21;64.99
28000;BME280;15328;50.860;10.562;2023-05-12T03:53:33;96479.56;;;12.22;65.35
28000;BME280;15328;50.860;10.562;2023-05-12T03:58:33;96475.28;;;12.21;65.19
28000;BME280;15328;50.860;10.562;2023-05-12T04:03:34;96476.91;;;12.22;65.34
28000;BME280;15328;50.860;10.562;2023-05-12T04:08:34;96481.56;;;12.27;65.43
28000;BME280;15328;50.860;10.562;2023-05-12T04:13:35;96484.59;;;12.30;64.97
28000;BME280;15328;50.860;10.562;2023-05-12T04:18:36;96491.41;;;12.26;64.94
28000;BME280;15328;50.860;10.562;2023-05-12T04:23:36;96494.13;;;12.38;64.76
28000;BME280;15328;50.860;10.562;2023-05-12T04:28:37;96492.97;;;12.34;64.97
28000;BME280;15328;50.860;10.562;2023-05-12T04:33:37;96491.41;;;12.26;65.37
28000;BME280;15328;50.860;10.562;2023-05-12T04:38:38;96499.25;;;12.40;65.10
28000;BME280;15328;50.860;10.562;2023-05-12T04:43:39;96501.22;;;12.44;64.94
28000;BME280;15328;50.860;10.562;2023-05-12T04:48:40;96495.69;;;12.57;65.11
28000;BME280;15328;50.860;10.562;2023-05-12T04:53:42;96493.53;;;12.78;64.66
28000;BME280;15328;50.860;10.562;2023-05-12T04:58:42;96498.91;;;12.89;64.40
28000;BME280;15328;50.860;10.562;2023-05-12T05:03:42;96506.78;;;12.96;64.03
28000;BME280;15328;50.860;10.562;2023-05-12T05:08:43;96509.09;;;13.04;63.24
28000;BME280;15328;50.860;10.562;2023-05-12T05:13:43;96511.53;;;13.06;63.73
28000;BME280;15328;50.860;10.562;2023-05-12T05:18:43;96514.72;;;13.26;63.53
28000;BME280;15328;50.860;10.562;2023-05-12T05:23:47;96521.69;;;13.27;63.41
28000;BME280;15328;50.860;10.562;2023-05-12T05:28:47;96513.91;;;13.37;63.29
28000;BME280;15328;50.860;10.562;2023-05-12T05:33:48;96522.63;;;13.44;63.47
28000;BME280;15328;50.860;10.562;2023-05-12T05:38:48;96518.44;;;13.37;63.87
28000;BME280;15328;50.860;10.562;2023-05-12T05:43:48;96522.81;;;13.66;62.81
28000;BME280;15328;50.860;10.562;2023-05-12T05:48:49;96534.31;;;13.78;62.73
28000;BME280;15328;50.860;10.562;2023-05-12T05:53:49;96536.00;;;13.96;62.67
28000;BME280;15328;50.860;10.562;2023-05-12T05:58:49;96531.13;;;14.05;62.40
28000;BME280;15328;50.860;10.562;2023-05-12T06:03:50;96538.38;;;14.21;62.28
28000;BME280;15328;50.860;10.562;2023-05-12T06:08:50;96541.38;;;14.36;61.73
28000;BME280;15328;50.860;10.562;2023-05-12T06:13:51;96536.75;;;14.60;61.05
28000;BME280;15328;50.860;10.562;2023-05-12T06:18:51;96546.16;;;14.63;59.96
28000;BME280;15328;50.860;10.562;2023-05-12T06:23:52;96552.91;;;14.65;59.52
28000;BME280;15328;50.860;10.562;2023-05-12T06:28:53;96560.78;;;14.72;59.20
28000;BME280;15328;50.860;10.562;2023-05-12T06:33:54;96556.44;;;14.82;58.77
28000;BME280;15328;50.860;10.562;2023-05-12T06:38:55;96551.66;;;15.01;58.58
28000;BME280;15328;50.860;10.562;2023-05-12T06:43:55;96562.69;;;15.22;57.98
28000;BME280;15328;50.860;10.562;2023-05-12T06:48:56;96556.13;;;15.12;57.39
28000;BME280;15328;50.860;10.562;2023-05-12T06:53:56;96561.31;;;14.86;56.20
28000;BME280;15328;50.860;10.562;2023-05-12T06:58:56;96560.97;;;14.82;56.53
28000;BME280;15328;50.860;10.562;2023-05-12T07:04:00;96565.53;;;14.98;56.85
28000;BME280;15328;50.860;10.562;2023-05-12T07:09:00;96555.56;;;15.10;57.03
28000;BME280;15328;50.860;10.562;2023-05-12T07:14:00;96562.59;;;15.33;56.61
28000;BME280;15328;50.860;10.562;2023-05-12T07:19:01;96563.03;;;15.25;55.83
28000;BME280;15328;50.860;10.562;2023-05-12T07:24:01;96563.91;;;15.31;56.03
28000;BME280;15328;50.860;10.562;2023-05-12T07:29:02;96564.16;;;15.46;56.02
28000;BME280;15328;50.860;10.562;2023-05-12T07:34:03;96559.75;;;15.57;55.83
28000;BME280;15328;50.860;10.562;2023-05-12T07:39:03;96554.50;;;15.62;55.58
28000;BME280;15328;50.860;10.562;2023-05-12T07:44:05;96566.38;;;15.66;54.97
28000;BME280;15328;50.860;10.562;2023-05-12T07:49:05;96560.78;;;15.89;54.91
28000;BME280;15328;50.860;10.562;2023-05-12T07:54:06;96564.66;;;15.98;54.40
28000;BME280;15328;50.860;10.562;2023-05-12T07:59:06;96556.31;;;16.17;53.09
28000;BME280;15328;50.860;10.562;2023-05-12T08:04:08;96560.78;;;16.33;53.25
28000;BME280;15328;50.860;10.562;2023-05-12T08:09:08;96565.03;;;16.73;53.09
28000;BME280;15328;50.860;10.562;2023-05-12T08:14:08;96568.34;;;17.12;52.54
28000;BME280;15328;50.860;10.562;2023-05-12T08:19:09;96576.72;;;17.20;52.06
28000;BME280;15328;50.860;10.562;2023-05-12T08:24:09;96567.81;;;17.47;51.91
28000;BME280;15328;50.860;10.562;2023-05-12T08:29:09;96569.97;;;17.82;51.92
28000;BME280;15328;50.860;10.562;2023-05-12T08:34:10;96571.75;;;18.13;51.10
28000;BME280;15328;50.860;10.562;2023-05-12T08:39:10;96578.06;;;18.39;50.29
28000;BME280;15328;50.860;10.562;2023-05-12T08:44:11;96581.28;;;18.36;48.85
28000;BME280;15328;50.860;10.562;2023-05-12T08:49:16;96571.59;;;18.35;48.57
28000;BME280;15328;50.860;10.562;2023-05-12T08:54:17;96583.72;;;18.43;48.94
28000;BME280;15328;50.860;10.562;2023-05-12T08:59:18;96579.66;;;18.35;48.70
28000;BME280;15328;50.860;10.562;2023-05-12T09:04:19;96585.84;;;18.36;49.23
28000;BME280;15328;50.860;10.562;2023-05-12T09:09:19;96587.25;;;18.59;49.08
28000;BME280;15328;50.860;10.562;2023-05-12T09:14:23;96588.97;;;18.70;48.70
28000;BME280;15328;50.860;10.562;2023-05-12T09:19:24;96579.94;;;18.44;48.51
28000;BME280;15328;50.860;10.562;2023-05-12T09:24:36;96584.81;;;18.52;49.09
28000;BME280;15328;50.860;10.562;2023-05-12T09:29:47;96599.38;;;18.56;47.36
28000;BME280;15328;50.860;10.562;2023-05-12T09:34:50;96589.25;;;18.78;47.86
28000;BME280;15328;50.860;10.562;2023-05-12T09:39:58;96595.75;;;19.03;47.64
28000;BME280;15328;50.860;10.562;2023-05-12T09:45:06;96596.59;;;19.39;48.11
28000;BME280;15328;50.860;10.562;2023-05-12T09:50:09;96596.63;;;19.59;46.12
28000;BME280;15328;50.860;10.562;2023-05-12T09:55:11;96592.50;;;20.13;46.53
28000;BME280;15328;50.860;10.562;2023-05-12T10:00:13;96601.81;;;21.10;46.81
28000;BME280;15328;50.860;10.562;2023-05-12T10:05:20;96600.97;;;21.54;44.00
28000;BME280;15328;50.860;10.562;2023-05-12T10:10:23;96602.97;;;21.72;43.65
28000;BME280;15328;50.860;10.562;2023-05-12T10:15:25;96594.69;;;21.87;43.02
28000;BME280;15328;50.860;10.562;2023-05-12T10:20:26;96591.75;;;22.13;42.63
28000;BME280;15328;50.860;10.562;2023-05-12T10:25:27;96592.72;;;22.46;42.14
28000;BME280;15328;50.860;10.562;2023-05-12T10:30:28;96595.84;;;23.38;41.23
28000;BME280;15328;50.860;10.562;2023-05-12T10:35:33;96598.38;;;24.27;39.04
28000;BME280;15328;50.860;10.562;2023-05-12T10:40:34;96599.72;;;24.71;35.66
28000;BME280;15328;50.860;10.562;2023-05-12T10:45:35;96590.06;;;25.15;35.22
28000;BME280;15328;50.860;10.562;2023-05-12T10:50:36;96598.94;;;25.43;34.65
28000;BME280;15328;50.860;10.562;2023-05-12T10:55:42;96598.91;;;25.56;34.26
28000;BME280;15328;50.860;10.562;2023-05-12T11:00:46;96588.47;;;25.14;32.78
28000;BME280;15328;50.860;10.562;2023-05-12T11:06:01;96585.78;;;25.00;33.22
28000;BME280;15328;50.860;10.562;2023-05-12T11:11:02;96590.69;;;25.12;34.66
28000;BME280;15328;50.860;10.562;2023-05-12T11:16:02;96590.47;;;25.22;34.09
28000;BME280;15328;50.860;10.562;2023-05-12T11:21:12;96584.81;;;25.18;33.94
28000;BME280;15328;50.860;10.562;2023-05-12T11:26:17;96585.13;;;24.67;34.41
28000;BME280;15328;50.860;10.562;2023-05-12T11:31:18;96593.97;;;24.31;34.94
28000;BME280;15328;50.860;10.562;2023-05-12T11:36:19;96582.84;;;24.00;34.98
28000;BME280;15328;50.860;10.562;2023-05-12T11:41:24;96595.56;;;23.54;36.81
28000;BME280;15328;50.860;10.562;2023-05-12T11:46:26;96591.00;;;23.17;37.05
28000;BME280;15328;50.860;10.562;2023-05-12T11:51:28;96585.16;;;22.91;38.08
28000;BME280;15328;50.860;10.562;2023-05-12T11:56:28;96579.81;;;22.62;38.04
28000;BME280;15328;50.860;10.562;2023-05-12T12:01:29;96591.13;;;22.45;38.95
28000;BME280;15328;50.860;10.562;2023-05-12T12:06:30;96596.31;;;22.41;38.79
28000;BME280;15328;50.860;10.562;2023-05-12T12:11:30;96596.06;;;22.19;39.35
28000;BME280;15328;50.860;10.562;2023-05-12T12:16:31;96589.69;;;21.76;39.69
28000;BME280;15328;50.860;10.562;2023-05-12T12:21:31;96606.31;;;21.64;40.40
28000;BME280;15328;50.860;10.562;2023-05-12T12:26:32;96600.59;;;21.32;40.73
28000;BME280;15328;50.860;10.562;2023-05-12T12:31:32;96600.13;;;21.19;41.08
28000;BME280;15328;50.860;10.562;2023-05-12T12:36:33;96600.44;;;21.08;41.52
28000;BME280;15328;50.860;10.562;2023-05-12T12:41:34;96601.78;;;21.15;41.44
28000;BME280;15328;50.860;10.562;2023-05-12T12:46:35;96601.53;;;21.07;40.24
28000;BME280;15328;50.860;10.562;2023-05-12T12:51:36;96599.25;;;20.80;39.54
28000;BME280;15328;50.860;10.562;2023-05-12T12:56:36;96601.22;;;20.69;40.71
28000;BME280;15328;50.860;10.562;2023-05-12T13:01:37;96606.16;;;20.47;42.13
28000;BME280;15328;50.860;10.562;2023-05-12T13:06:37;96616.75;;;20.23;44.34
28000;BME280;15328;50.860;10.562;2023-05-12T13:11:38;96606.06;;;19.82;48.35
28000;BME280;15328;50.860;10.562;2023-05-12T13:16:38;96614.69;;;19.84;50.62
28000;BME280;15328;50.860;10.562;2023-05-12T13:21:39;96614.41;;;19.91;51.48
28000;BME280;15328;50.860;10.562;2023-05-12T13:26:39;96603.56;;;20.11;50.01
28000;BME280;15328;50.860;10.562;2023-05-12T13:31:40;96606.22;;;20.21;48.48
28000;BME280;15328;50.860;10.562;2023-05-12T13:36:41;96606.03;;;19.92;45.59
28000;BME280;15328;50.860;10.562;2023-05-12T13:41:42;96597.13;;;19.87;47.09
28000;BME280;15328;50.860;10.562;2023-05-12T13:46:42;96596.34;;;19.81;47.26
28000;BME280;15328;50.860;10.562;2023-05-12T13:51:43;96598.75;;;19.83;47.45
28000;BME280;15328;50.860;10.562;2023-05-12T13:56:43;96593.31;;;19.98;47.21
28000;BME280;15328;50.860;10.562;2023-05-12T14:01:44;96596.31;;;19.91;43.32
28000;BME280;15328;50.860;10.562;2023-05-12T14:06:44;96600.59;;;20.13;42.93
28000;BME280;15328;50.860;10.562;2023-05-12T14:11:45;96600.56;;;20.28;41.30
28000;BME280;15328;50.860;10.562;2023-05-12T14:16:45;96596.47;;;20.41;42.27
28000;BME280;15328;50.860;10.562;2023-05-12T14:21:45;96600.56;;;20.18;40.00
28000;BME280;15328;50.860;10.562;2023-05-12T14:26:46;96601.41;;;19.98;40.48
28000;BME280;15328;50.860;10.562;2023-05-12T14:31:46;96584.75;;;19.75;40.58
28000;BME280;15328;50.860;10.562;2023-05-12T14:36:46;96588.00;;;19.72;41.05
28000;BME280;15328;50.860;10.562;2023-05-12T14:41:47;96592.31;;;19.73;40.62
28000;BME280;15328;50.860;10.562;2023-05-12T14:46:47;96590.69;;;19.72;40.21
28000;BME280;15328;50.860;10.562;2023-05-12T14:51:48;96589.88;;;19.67;40.32
28000;BME280;15328;50.860;10.562;2023-05-12T14:56:48;96592.56;;;19.77;41.86
28000;BME280;15328;50.860;10.562;2023-05-12T15:01:49;96600.41;;;19.79;40.91
28000;BME280;15328;50.860;10.562;2023-05-12T15:06:49;96611.72;;;19.65;40.99
28000;BME280;15328;50.860;10.562;2023-05-12T15:11:49;96604.72;;;19.54;42.38
28000;BME280;15328;50.860;10.562;2023-05-12T15:16:50;96607.44;;;19.54;44.04
28000;BME280;15328;50.860;10.562;2023-05-12T15:21:51;96609.03;;;19.50;45.54
28000;BME280;15328;50.860;10.562;2023-05-12T15:26:51;96603.59;;;19.35;46.56
28000;BME280;15328;50.860;10.562;2023-05-12T15:31:52;96608.97;;;19.14;48.08
28000;BME280;15328;50.860;10.562;2023-05-12T15:36:52;96610.59;;;18.95;48.93
28000;BME280;15328;50.860;10.562;2023-05-12T15:41:53;96604.38;;;19.00;49.26
28000;BME280;15328;50.860;10.562;2023-05-12T15:46:53;96613.78;;;18.87;50.35
28000;BME280;15328;50.860;10.562;2023-05-12T15:51:53;96615.63;;;18.71;50.66
28000;BME280;15328;50.860;10.562;2023-05-12T15:56:57;96608.63;;;18.65;51.24
28000;BME280;15328;50.860;10.562;2023-05-12T16:02:37;96611.75;;;18.47;53.15
28000;BME280;15328;50.860;10.562;2023-05-12T16:08:06;96602.50;;;18.33;53.79
28000;BME280;15328;50.860;10.562;2023-05-12T16:19:28;96606.22;;;18.16;54.60
28000;BME280;15328;50.860;10.562;2023-05-12T16:24:49;96601.47;;;17.86;55.62
28000;BME280;15328;50.860;10.562;2023-05-12T16:29:58;96600.66;;;17.86;55.95
28000;BME280;15328;50.860;10.562;2023-05-12T16:34:58;96602.03;;;17.88;55.90
28000;BME280;15328;50.860;10.562;2023-05-12T16:40:11;96624.66;;;17.92;55.69
28000;BME280;15328;50.860;10.562;2023-05-12T16:45:34;96639.88;;;17.77;54.76
28000;BME280;15328;50.860;10.562;2023-05-12T16:50:42;96623.97;;;17.43;56.82
28000;BME280;15328;50.860;10.562;2023-05-12T16:56:42;96617.47;;;17.34;59.03
28000;BME280;15328;50.860;10.562;2023-05-12T17:02:03;96625.03;;;17.10;59.10
28000;BME280;15328;50.860;10.562;2023-05-12T17:07:12;96621.44;;;16.73;60.30
28000;BME280;15328;50.860;10.562;2023-05-12T17:12:13;96622.16;;;16.46;60.71
28000;BME280;15328;50.860;10.562;2023-05-12T17:17:17;96630.16;;;16.19;61.22
28000;BME280;15328;50.860;10.562;2023-05-12T17:22:17;96634.09;;;15.95;61.62
28000;BME280;15328;50.860;10.562;2023-05-12T17:27:18;96638.16;;;15.81;61.99
28000;BME280;15328;50.860;10.562;2023-05-12T17:32:18;96631.75;;;15.48;62.65
28000;BME280;15328;50.860;10.562;2023-05-12T17:37:22;96632.16;;;15.40;63.35
28000;BME280;15328;50.860;10.562;2023-05-12T17:42:23;96631.63;;;15.26;64.08
28000;BME280;15328;50.860;10.562;2023-05-12T17:47:24;96636.50;;;15.12;64.56
28000;BME280;15328;50.860;10.562;2023-05-12T17:52:24;96643.16;;;15.10;64.31
28000;BME280;15328;50.860;10.562;2023-05-12T17:57:24;96643.56;;;15.19;63.79
28000;BME280;15328;50.860;10.562;2023-05-12T18:02:26;96642.69;;;15.30;62.34
28000;BME280;15328;50.860;10.562;2023-05-12T18:07:26;96641.94;;;15.18;62.32
28000;BME280;15328;50.860;10.562;2023-05-12T18:12:27;96644.78;;;15.11;62.31
28000;BME280;15328;50.860;10.562;2023-05-12T18:17:27;96646.78;;;15.04;62.75
28000;BME280;15328;50.860;10.562;2023-05-12T18:22:30;96648.53;;;15.10;61.58
28000;BME280;15328;50.860;10.562;2023-05-12T18:27:31;96655.22;;;14.96;62.17
28000;BME280;15328;50.860;10.562;2023-05-12T18:32:31;96663.06;;;14.86;62.32
28000;BME280;15328;50.860;10.562;2023-05-12T18:37:34;96667.72;;;14.78;62.46
28000;BME280;15328;50.860;10.562;2023-05-12T18:42:45;96667.44;;;14.63;63.00
28000;BME280;15328;50.860;10.562;2023-05-12T18:47:46;96665.25;;;14.60;62.95
28000;BME280;15328;50.860;10.562;2023-05-12T18:52:46;96666.78;;;14.33;63.51
28000;BME280;15328;50.860;10.562;2023-05-12T18:57:46;96678.88;;;14.23;64.30
28000;BME280;15328;50.860;10.562;2023-05-12T19:02:47;96683.31;;;14.18;63.91
28000;BME280;15328;50.860;10.562;2023-05-12T19:07:48;96684.63;;;14.27;63.55
28000;BME280;15328;50.860;10.562;2023-05-12T19:12:48;96692.31;;;14.00;64.27
28000;BME280;15328;50.860;10.562;2023-05-12T19:17:50;96686.72;;;14.02;63.95
28000;BME280;15328;50.860;10.562;2023-05-12T19:22:50;96698.13;;;13.97;63.79
28000;BME280;15328;50.860;10.562;2023-05-12T19:27:51;96694.41;;;13.98;64.15
28000;BME280;15328;50.860;10.562;2023-05-12T19:32:54;96694.97;;;13.88;63.84
28000;BME280;15328;50.860;10.562;2023-05-12T19:37:54;96698.00;;;13.80;64.38
28000;BME280;15328;50.860;10.562;2023-05-12T19:42:55;96703.22;;;13.87;63.31
28000;BME280;15328;50.860;10.562;2023-05-12T19:47:55;96707.94;;;13.61;64.35
28000;BME280;15328;50.860;10.562;2023-05-12T19:52:56;96713.41;;;13.55;64.83
28000;BME280;15328;50.860;10.562;2023-05-12T19:57:56;96710.38;;;13.63;64.39
28000;BME280;15328;50.860;10.562;2023-05-12T20:02:56;96705.38;;;13.55;64.78
28000;BME280;15328;50.860;10.562;2023-05-12T20:07:57;96712.84;;;13.65;64.69
28000;BME280;15328;50.860;10.562;2023-05-12T20:12:57;96711.09;;;13.58;64.05
28000;BME280;15328;50.860;10.562;2023-05-12T20:17:57;96715.03;;;13.56;63.91
28000;BME280;15328;50.860;10.562;2023-05-12T20:22:58;96715.84;;;13.45;63.55
28000;BME280;15328;50.860;10.562;2023-05-12T20:27:58;96714.88;;;13.39;64.47
28000;BME280;15328;50.860;10.562;2023-05-12T20:32:58;96717.78;;;13.38;64.40
28000;BME280;15328;50.860;10.562;2023-05-12T20:37:59;96713.81;;;13.40;64.12
28000;BME280;15328;50.860;10.562;2023-05-12T20:43:00;96724.75;;;13.39;64.58
28000;BME280;15328;50.860;10.562;2023-05-12T20:48:00;96727.50;;;13.32;64.22
28000;BME280;15328;50.860;10.562;2023-05-12T20:53:01;96730.66;;;13.29;65.16
28000;BME280;15328;50.860;10.562;2023-05-12T20:58:01;96736.44;;;13.26;64.54
28000;BME280;15328;50.860;10.562;2023-05-12T21:03:02;96746.69;;;13.29;64.72
28000;BME280;15328;50.860;10.562;2023-05-12T21:08:04;96762.72;;;13.29;64.80
28000;BME280;15328;50.860;10.562;2023-05-12T21:13:04;96768.22;;;13.16;64.94
28000;BME280;15328;50.860;10.562;2023-05-12T21:18:05;96765.53;;;13.16;64.83
28000;BME280;15328;50.860;10.562;2023-05-12T21:23:06;96767.47;;;13.27;64.70
28000;BME280;15328;50.860;10.562;2023-05-12T21:28:10;96771.63;;;13.23;65.07
28000;BME280;15328;50.860;10.562;2023-05-12T21:33:10;96777.47;;;13.32;64.54
28000;BME280;15328;50.860;10.562;2023-05-12T21:38:11;96778.50;;;13.30;64.71
28000;BME280;15328;50.860;10.562;2023-05-12T21:43:11;96768.72;;;13.06;65.13
28000;BME280;15328;50.860;10.562;2023-05-12T21:48:11;96775.09;;;13.05;66.18
28000;BME280;15328;50.860;10.562;2023-05-12T21:53:12;96774.59;;;13.15;65.87
28000;BME280;15328;50.860;10.562;2023-05-12T21:58:18;96773.25;;;13.24;65.08
28000;BME280;15328;50.860;10.562;2023-05-12T22:03:19;96762.84;;;13.34;64.56
28000;BME280;15328;50.860;10.562;2023-05-12T22:08:20;96760.50;;;13.26;65.70
28000;BME280;15328;50.860;10.562;2023-05-12T22:13:20;96751.56;;;13.32;65.14
28000;BME280;15328;50.860;10.562;2023-05-12T22:18:21;96750.53;;;13.33;65.63
28000;BME280;15328;50.860;10.562;2023-05-12T22:23:21;96747.09;;;13.44;65.08
28000;BME280;15328;50.860;10.562;2023-05-12T22:28:21;96752.31;;;13.51;64.36
28000;BME280;15328;50.860;10.562;2023-05-12T22:33:22;96746.53;;;13.54;64.14
28000;BME280;15328;50.860;10.562;2023-05-12T22:38:22;96753.00;;;13.46;64.56
28000;BME280;15328;50.860;10.562;2023-05-12T22:43:23;96752.97;;;13.35;64.63
28000;BME280;15328;50.860;10.562;2023-05-12T22:48:23;96751.34;;;13.34;64.87
28000;BME280;15328;50.860;10.562;2023-05-12T22:53:24;96760.34;;;13.21;65.25
28000;BME280;15328;50.860;10.562;2023-05-12T22:58:24;96756.56;;;13.10;66.03
28000;BME280;15328;50.860;10.562;2023-05-12T23:03:25;96754.78;;;13.04;66.11
28000;BME280;15328;50.860;10.562;2023-05-12T23:08:25;96767.09;;;12.87;66.31
28000;BME280;15328;50.860;10.562;2023-05-12T23:13:25;96757.91;;;12.83;67.16
28000;BME280;15328;50.860;10.562;2023-05-12T23:18:26;96764.75;;;12.79;66.42
28000;BME280;15328;50.860;10.562;2023-05-12T23:23:26;96769.78;;;12.87;66.43
28000;BME280;15328;50.860;10.562;2023-05-12T23:28:26;96763.72;;;12.80;66.72
28000;BME280;15328;50.860;10.562;2023-05-12T23:33:27;96764.38;;;12.93;66.08
28000;BME280;15328;50.860;10.562;2023-05-12T23:38:27;96765.88;;;12.89;66.34
28000;BME280;15328;50.860;10.562;2023-05-12T23:43:27;96761.03;;;12.98;65.08
28000;BME280;15328;50.860;10.562;2023-05-12T23:48:28;96760.66;;;12.94;65.04
28000;BME280;15328;50.860;10.562;2023-05-12T23:53:29;96773.66;;;12.91;64.89
28000;BME280;15328;50.860;10.562;2023-05-12T23:58:29;96771.28;;;12.83;65.44
